createdAt,value
2024-03-13T00:01:57.336Z,100674.78
2024-03-13T00:04:42.953Z,100680.38
2024-03-13T00:07:28.425Z,100674.09
2024-03-13T00:10:13.859Z,100671.09
2024-03-13T00:12:59.261Z,100671.91
2024-03-13T00:15:44.288Z,100671.22
2024-03-13T00:18:29.705Z,100666.91
2024-03-13T00:21:14.694Z,100673.09
2024-03-13T00:24:00.068Z,100675.47
2024-03-13T00:26:45.021Z,100662.03
2024-03-13T00:29:29.901Z,100680.78
2024-03-13T00:32:15.978Z,100674.66
2024-03-13T00:35:01.086Z,100661.59
2024-03-13T00:37:45.976Z,100665.91
2024-03-13T00:40:30.965Z,100666.84
2024-03-13T00:43:15.991Z,100657.06
2024-03-13T00:46:01.177Z,100654.75
2024-03-13T00:48:46.395Z,100662.03
2024-03-13T00:51:31.436Z,100656.63
2024-03-13T00:54:17.321Z,100654.34
2024-03-13T00:57:02.432Z,100646.88
2024-03-13T00:59:47.428Z,100650.84
2024-03-13T01:02:32.582Z,100653.03
2024-03-13T01:05:17.477Z,100650.09
2024-03-13T01:08:02.314Z,100646.53
2024-03-13T01:10:47.174Z,100646.28
2024-03-13T01:13:32.248Z,100655.66
2024-03-13T01:16:17.527Z,100664.38
2024-03-13T01:19:02.590Z,100651.56
2024-03-13T01:21:48.509Z,100650.09
2024-03-13T01:24:33.404Z,100650.91
2024-03-13T01:27:18.491Z,100648.97
2024-03-13T01:30:04.651Z,100643.59
2024-03-13T01:32:49.887Z,100642.47
2024-03-13T01:35:34.880Z,100635.88
2024-03-13T01:38:19.853Z,100635.41
2024-03-13T01:41:04.651Z,100645.16
2024-03-13T01:43:57.055Z,100654.72
2024-03-13T01:46:42.480Z,100645.72
2024-03-13T01:49:28.062Z,100651.88
2024-03-13T01:52:17.184Z,100660.34
2024-03-13T01:55:08.923Z,100656.78
2024-03-13T01:57:54.217Z,100658.47
2024-03-13T02:00:39.416Z,100663.09
2024-03-13T02:03:24.667Z,100663.72
2024-03-13T02:06:09.645Z,100663.19
2024-03-13T02:08:54.865Z,100664.25
2024-03-13T02:11:40.015Z,100666.16
2024-03-13T02:14:25.453Z,100667.63
2024-03-13T02:17:10.840Z,100668.03
2024-03-13T02:19:57.078Z,100681.72
2024-03-13T02:22:42.447Z,100678.63
2024-03-13T02:25:27.497Z,100680.03
2024-03-13T02:28:12.418Z,100674.09
2024-03-13T02:30:57.368Z,100668.72
2024-03-13T02:33:42.139Z,100666.19
2024-03-13T02:36:27.002Z,100666.06
2024-03-13T02:39:12.327Z,100667.84
2024-03-13T02:41:57.311Z,100662.84
2024-03-13T02:44:42.160Z,100657.47
2024-03-13T02:47:27.149Z,100641.88
2024-03-13T02:50:12.685Z,100640.72
2024-03-13T02:52:57.507Z,100643.47
2024-03-13T02:55:42.549Z,100640.78
2024-03-13T02:58:27.613Z,100640.03
2024-03-13T03:01:13.702Z,100629.59
2024-03-13T03:03:58.993Z,100638.59
2024-03-13T03:06:43.852Z,100637.91
2024-03-13T03:09:28.803Z,100644.22
2024-03-13T03:12:13.661Z,100641.25
2024-03-13T03:14:58.619Z,100638.97
2024-03-13T03:17:43.558Z,100625.56
2024-03-13T03:20:28.550Z,100627.69
2024-03-13T03:23:13.324Z,100642.31
2024-03-13T03:25:58.314Z,100642.66
2024-03-13T03:28:43.218Z,100645.34
2024-03-13T03:31:28.218Z,100649.66
2024-03-13T03:34:13.610Z,100646.13
2024-03-13T03:36:58.621Z,100643.94
2024-03-13T03:39:43.579Z,100629.97
2024-03-13T03:42:28.787Z,100642.78
2024-03-13T03:45:13.767Z,100649.78
2024-03-13T03:48:04.795Z,100646.78
2024-03-13T03:50:55.623Z,100651.91
2024-03-13T03:53:40.561Z,100639.81
2024-03-13T03:56:25.694Z,100634.28
2024-03-13T03:59:10.639Z,100641.22
2024-03-13T04:01:55.704Z,100640.97
2024-03-13T04:04:41.088Z,100651.19
2024-03-13T04:07:25.996Z,100653.03
2024-03-13T04:10:11.002Z,100656.81
2024-03-13T04:12:55.978Z,100658.88
2024-03-13T04:15:41.101Z,100666.06
2024-03-13T04:18:25.920Z,100674.97
2024-03-13T04:21:11.211Z,100673.97
2024-03-13T04:23:56.276Z,100669.47
2024-03-13T04:26:41.443Z,100667.56
2024-03-13T04:29:32.113Z,100676.59
2024-03-13T04:32:23.955Z,100682.81
2024-03-13T04:35:09.384Z,100671.09
2024-03-13T04:37:54.299Z,100666.56
2024-03-13T04:40:39.704Z,100663.03
2024-03-13T04:43:24.858Z,100658.22
2024-03-13T04:46:17.202Z,100664.31
2024-03-13T04:49:02.340Z,100659.91
2024-03-13T04:51:47.484Z,100662.34
2024-03-13T04:54:32.461Z,100665.81
2024-03-13T04:57:17.339Z,100655.84
2024-03-13T05:00:02.450Z,100656.13
2024-03-13T05:02:47.554Z,100653.63
2024-03-13T05:05:32.281Z,100651.06
2024-03-13T05:08:17.269Z,100648.50
2024-03-13T05:11:02.165Z,100649.03
2024-03-13T05:13:47.200Z,100672.06
2024-03-13T05:16:32.674Z,100671.91
2024-03-13T05:19:17.970Z,100662.94
2024-03-13T05:22:02.978Z,100652.28
2024-03-13T05:24:47.901Z,100661.13
2024-03-13T05:27:32.776Z,100665.34
2024-03-13T05:30:18.047Z,100653.78
2024-03-13T05:33:03.299Z,100667.50
2024-03-13T05:35:48.132Z,100661.69
2024-03-13T05:38:33.134Z,100665.31
2024-03-13T05:41:17.972Z,100667.03
2024-03-13T05:44:02.808Z,100663.91
2024-03-13T05:46:47.898Z,100667.44
2024-03-13T05:49:32.827Z,100669.59
2024-03-13T05:52:17.708Z,100659.69
2024-03-13T05:55:02.699Z,100662.13
2024-03-13T05:57:47.974Z,100654.53
2024-03-13T06:00:33.143Z,100657.41
2024-03-13T06:03:18.242Z,100650.97
2024-03-13T06:06:03.406Z,100651.72
2024-03-13T06:08:48.588Z,100653.13
2024-03-13T06:11:33.617Z,100650.03
2024-03-13T06:14:19.010Z,100644.78
2024-03-13T06:17:03.999Z,100644.16
2024-03-13T06:19:49.024Z,100643.44
2024-03-13T06:22:33.997Z,100642.59
2024-03-13T06:25:19.372Z,100642.50
2024-03-13T06:28:04.473Z,100642.34
2024-03-13T06:30:49.492Z,100649.78
2024-03-13T06:33:34.569Z,100658.53
2024-03-13T06:36:19.794Z,100662.22
2024-03-13T06:39:04.723Z,100671.03
2024-03-13T06:41:49.553Z,100667.34
2024-03-13T06:44:34.501Z,100673.38
2024-03-13T06:47:19.381Z,100679.59
2024-03-13T06:50:04.867Z,100674.56
2024-03-13T06:52:49.680Z,100676.66
2024-03-13T06:55:34.657Z,100670.13
2024-03-13T06:58:19.932Z,100677.13
2024-03-13T07:01:14.515Z,100675.31
2024-03-13T07:04:00.011Z,100683.41
2024-03-13T07:06:45.763Z,100672.59
2024-03-13T07:09:30.912Z,100676.34
2024-03-13T07:12:16.703Z,100674.09
2024-03-13T07:15:01.865Z,100674.00
2024-03-13T07:17:46.851Z,100668.41
2024-03-13T07:20:32.242Z,100663.25
2024-03-13T07:23:17.584Z,100666.47
2024-03-13T07:26:02.536Z,100675.22
2024-03-13T07:28:47.394Z,100670.66
2024-03-13T07:31:32.397Z,100668.84
2024-03-13T07:34:17.357Z,100669.03
2024-03-13T07:37:02.312Z,100675.34
2024-03-13T07:39:47.301Z,100676.09
2024-03-13T07:42:33.105Z,100672.75
2024-03-13T07:45:18.450Z,100684.75
2024-03-13T07:48:03.427Z,100677.22
2024-03-13T07:50:48.637Z,100692.47
2024-03-13T07:53:34.309Z,100693.50
2024-03-13T07:56:19.439Z,100691.75
2024-03-13T07:59:05.168Z,100702.34
2024-03-13T08:01:50.345Z,100702.25
2024-03-13T08:04:35.817Z,100698.84
2024-03-13T09:08:30.787Z,100799.22
2024-03-13T09:11:24.606Z,100800.56
2024-03-13T09:14:09.401Z,100807.41
2024-03-13T09:16:54.351Z,100810.41
2024-03-13T09:19:39.313Z,100810.53
2024-03-13T09:22:24.178Z,100806.53
2024-03-13T09:25:09.120Z,100805.47
2024-03-13T09:27:54.087Z,100817.53
2024-03-13T09:30:39.031Z,100810.09
2024-03-13T09:33:24.022Z,100806.84
2024-03-13T09:36:15.565Z,100810.44
2024-03-13T09:39:00.963Z,100808.94
2024-03-13T09:41:48.210Z,100816.47
2024-03-13T09:44:33.649Z,100820.13
2024-03-13T09:47:20.198Z,100820.66
2024-03-13T09:50:06.946Z,100825.78
2024-03-13T09:52:56.532Z,100819.91
2024-03-13T09:55:42.093Z,100817.44
2024-03-13T09:58:27.344Z,100821.00
2024-03-13T10:01:21.486Z,100831.16
2024-03-13T10:04:10.152Z,100820.00
2024-03-13T10:06:59.886Z,100832.03
2024-03-13T10:09:47.350Z,100836.47
2024-03-13T10:12:33.399Z,100829.59
2024-03-13T10:15:20.168Z,100832.47
2024-03-13T10:18:16.337Z,100843.59
2024-03-13T10:21:24.427Z,100839.44
2024-03-13T10:24:11.100Z,100842.94
2024-03-13T10:26:57.747Z,100843.81
2024-03-13T10:29:44.074Z,100850.91
2024-03-13T10:32:29.443Z,100852.06
2024-03-13T10:35:14.285Z,100842.69
2024-03-13T10:37:59.221Z,100844.47
2024-03-13T10:40:44.188Z,100844.47
2024-03-13T10:43:29.556Z,100851.63
2024-03-13T10:46:14.492Z,100855.97
2024-03-13T10:49:00.931Z,100847.50
2024-03-13T10:51:46.425Z,100851.13
2024-03-13T10:54:31.169Z,100854.69
2024-03-13T10:57:19.468Z,100847.03
2024-03-13T11:00:12.177Z,100847.97
2024-03-13T11:02:57.404Z,100848.16
2024-03-13T11:05:42.760Z,100852.72
2024-03-13T11:08:28.181Z,100843.44
2024-03-13T11:11:20.483Z,100851.34
2024-03-13T11:14:11.072Z,100852.56
2024-03-13T11:16:58.363Z,100859.47
2024-03-13T11:19:43.748Z,100857.81
2024-03-13T11:22:32.539Z,100851.09
2024-03-13T11:25:18.837Z,100853.81
2024-03-13T11:28:08.965Z,100850.13
2024-03-13T11:30:54.634Z,100864.75
2024-03-13T11:33:40.295Z,100849.38
2024-03-13T11:36:26.773Z,100866.00
2024-03-13T11:39:12.161Z,100864.28
2024-03-13T11:42:07.140Z,100857.66
2024-03-13T11:45:13.074Z,100853.56
2024-03-13T11:48:00.940Z,100853.53
2024-03-13T11:51:01.610Z,100857.88
2024-03-13T11:53:47.070Z,100849.59
2024-03-13T11:56:32.894Z,100856.50
2024-03-13T11:59:18.298Z,100861.56
2024-03-13T12:02:03.459Z,100854.81
2024-03-13T12:04:48.333Z,100852.13
2024-03-13T12:07:40.135Z,100847.06
2024-03-13T12:10:26.182Z,100840.28
2024-03-13T12:13:15.536Z,100839.41
2024-03-13T12:16:00.603Z,100837.78
2024-03-13T12:18:45.824Z,100832.47
2024-03-13T12:21:30.965Z,100833.69
2024-03-13T12:24:15.975Z,100818.22
2024-03-13T12:27:00.843Z,100822.38
2024-03-13T12:29:45.821Z,100814.00
2024-03-13T12:32:30.866Z,100812.31
2024-03-13T12:35:15.710Z,100810.00
2024-03-13T12:38:00.638Z,100815.34
2024-03-13T12:40:46.601Z,100813.56
2024-03-13T12:43:31.562Z,100814.66
2024-03-13T12:46:17.255Z,100804.03
2024-03-13T12:49:02.498Z,100812.69
2024-03-13T12:51:52.673Z,100804.94
2024-03-13T12:54:37.917Z,100805.66
2024-03-13T12:57:22.812Z,100791.75
2024-03-13T13:00:10.073Z,100806.34
2024-03-13T13:02:55.625Z,100804.81
2024-03-13T13:05:42.091Z,100807.38
2024-03-13T13:08:29.610Z,100802.94
2024-03-13T13:11:14.537Z,100804.66
2024-03-13T13:13:59.509Z,100815.97
2024-03-13T13:16:44.537Z,100812.63
2024-03-13T13:19:29.881Z,100809.78
2024-03-13T13:22:14.777Z,100817.56
2024-03-13T13:24:59.681Z,100817.44
2024-03-13T13:27:45.001Z,100827.09
2024-03-13T13:30:30.219Z,100821.81
2024-03-13T13:33:15.790Z,100820.94
2024-03-13T13:36:01.568Z,100820.19
2024-03-13T13:38:46.726Z,100827.00
2024-03-13T13:41:31.745Z,100829.66
2024-03-13T13:44:16.571Z,100827.03
2024-03-13T13:47:01.433Z,100826.31
2024-03-13T13:49:46.252Z,100827.91
2024-03-13T13:52:31.243Z,100834.84
2024-03-13T13:55:17.593Z,100835.66
2024-03-13T13:58:03.693Z,100835.66
2024-03-13T14:00:48.540Z,100840.91
2024-03-13T14:03:33.368Z,100840.09
2024-03-13T14:06:18.448Z,100848.84
2024-03-13T14:09:03.915Z,100837.59
2024-03-13T14:11:48.942Z,100851.25
2024-03-13T14:14:34.302Z,100856.41
2024-03-13T14:17:19.101Z,100856.53
2024-03-13T14:20:04.947Z,100867.66
2024-03-13T14:22:50.027Z,100859.91
2024-03-13T14:25:35.316Z,100871.03
2024-03-13T14:28:20.333Z,100868.47
2024-03-13T14:31:05.253Z,100867.53
2024-03-13T14:33:50.303Z,100874.44
2024-03-13T14:36:35.504Z,100867.75
2024-03-13T14:39:20.921Z,100876.28
2024-03-13T14:42:08.295Z,100882.25
2024-03-13T14:45:01.257Z,100883.13
2024-03-13T14:47:47.567Z,100871.91
2024-03-13T14:50:33.025Z,100876.06
2024-03-13T14:53:17.964Z,100871.75
2024-03-13T14:56:03.068Z,100884.00
2024-03-13T14:58:48.044Z,100875.34
2024-03-13T15:01:32.949Z,100881.28
2024-03-13T15:04:17.904Z,100885.81
2024-03-13T15:07:02.799Z,100876.25
2024-03-13T15:09:47.784Z,100880.31
2024-03-13T15:12:32.721Z,100871.00
2024-03-13T15:15:18.741Z,100869.16
2024-03-13T15:18:04.076Z,100871.75
2024-03-13T15:20:49.156Z,100870.78
2024-03-13T15:23:34.150Z,100861.25
2024-03-13T15:26:19.203Z,100875.91
2024-03-13T15:29:04.505Z,100873.31
2024-03-13T15:31:49.367Z,100870.69
2024-03-13T15:34:34.265Z,100875.00
2024-03-13T15:37:18.993Z,100866.38
2024-03-13T15:40:04.314Z,100874.19
2024-03-13T15:42:49.420Z,100881.94
2024-03-13T15:45:35.143Z,100871.59
2024-03-13T15:48:20.422Z,100870.91
2024-03-13T15:51:05.530Z,100867.31
2024-03-13T15:53:50.751Z,100866.41
2024-03-13T15:56:35.929Z,100871.59
2024-03-13T15:59:20.817Z,100868.25
2024-03-13T16:02:06.033Z,100860.50
2024-03-13T16:04:51.161Z,100865.56
2024-03-13T16:07:36.374Z,100857.91
2024-03-13T16:10:21.312Z,100856.88
2024-03-13T16:13:06.429Z,100860.38
2024-03-13T16:15:51.251Z,100846.53
2024-03-13T16:18:36.334Z,100859.41
2024-03-13T16:21:21.715Z,100854.06
2024-03-13T16:24:07.019Z,100860.91
2024-03-13T16:26:52.400Z,100853.09
2024-03-13T16:32:22.183Z,100866.84
2024-03-13T16:35:07.253Z,100872.00
2024-03-13T16:37:52.512Z,100867.75
2024-03-13T16:40:37.508Z,100871.94
2024-03-13T16:43:22.335Z,100875.41
2024-03-13T16:46:07.491Z,100874.50
2024-03-13T16:48:52.713Z,100883.19
2024-03-13T16:51:38.589Z,100877.13
2024-03-13T16:54:23.461Z,100880.59
2024-03-13T16:57:09.103Z,100886.59
2024-03-13T16:59:54.237Z,100881.28
2024-03-13T17:02:39.096Z,100881.50
2024-03-13T17:05:24.180Z,100890.88
2024-03-13T17:08:09.384Z,100893.44
2024-03-13T17:10:54.252Z,100892.53
2024-03-13T17:13:38.970Z,100897.63
2024-03-13T17:16:23.856Z,100901.09
2024-03-13T17:19:08.650Z,100917.44
2024-03-13T17:21:53.599Z,100919.16
2024-03-13T17:24:38.647Z,100914.84
2024-03-13T17:27:23.589Z,100920.75
2024-03-13T17:30:08.786Z,100922.53
2024-03-13T17:32:54.122Z,100924.25
2024-03-13T17:35:39.241Z,100931.97
2024-03-13T17:38:24.069Z,100933.69
2024-03-13T17:41:09.413Z,100941.44
2024-03-13T17:43:54.461Z,100942.38
2024-03-13T17:46:39.447Z,100938.94
2024-03-13T17:49:24.431Z,100943.28
2024-03-13T17:52:09.264Z,100948.34
2024-03-13T17:54:54.792Z,100952.59
2024-03-13T17:57:39.615Z,100945.75
2024-03-13T18:00:24.580Z,100961.25
2024-03-13T18:03:10.054Z,100953.81
2024-03-13T18:05:55.501Z,100951.78
2024-03-13T18:08:40.990Z,100962.13
2024-03-13T18:11:25.851Z,100963.00
2024-03-13T18:14:11.515Z,100974.19
2024-03-13T18:16:56.741Z,100970.81
2024-03-13T18:19:41.669Z,100971.63
2024-03-13T18:22:26.633Z,100970.63
2024-03-13T18:25:11.603Z,100975.06
2024-03-13T18:27:56.530Z,100973.50
2024-03-13T18:30:41.310Z,100972.56
2024-03-13T18:33:26.370Z,100983.94
2024-03-13T18:36:14.788Z,100983.00
2024-03-13T18:38:59.761Z,100984.94
2024-03-13T18:41:45.128Z,100979.75
2024-03-13T18:44:32.261Z,100988.50
2024-03-13T18:47:17.577Z,100980.84
2024-03-13T18:50:03.480Z,100979.97
2024-03-13T18:52:49.102Z,100979.25
2024-03-13T18:55:34.442Z,100977.53
2024-03-13T18:58:19.322Z,100972.06
2024-03-13T19:01:04.433Z,100979.00
2024-03-13T19:03:49.498Z,100978.84
2024-03-13T19:06:34.708Z,100980.84
2024-03-13T19:09:19.858Z,100979.06
2024-03-13T19:12:04.873Z,100976.22
2024-03-13T19:14:50.259Z,100976.28
2024-03-13T19:17:35.274Z,100978.69
2024-03-13T19:20:20.363Z,100979.56
2024-03-13T19:23:06.150Z,100969.16
2024-03-13T19:25:51.411Z,100972.72
2024-03-13T19:28:36.585Z,100971.06
2024-03-13T19:31:27.160Z,100975.38
2024-03-13T19:34:19.845Z,100966.63
2024-03-13T19:37:04.912Z,100972.66
2024-03-13T19:39:49.798Z,100970.19
2024-03-13T19:42:34.629Z,100957.25
2024-03-13T19:45:19.631Z,100964.03
2024-03-13T19:48:05.584Z,100969.16
2024-03-13T19:50:50.817Z,100966.75
2024-03-13T19:53:35.768Z,100968.34
2024-03-13T19:56:20.759Z,100957.94
2024-03-13T19:59:05.791Z,100960.59
2024-03-13T20:01:50.662Z,100958.06
2024-03-13T20:04:35.563Z,100959.59
2024-03-13T20:07:20.591Z,100950.13
2024-03-13T20:10:05.802Z,100945.88
2024-03-13T20:12:51.276Z,100952.22
2024-03-13T20:15:36.500Z,100946.28
2024-03-13T20:18:22.031Z,100948.81
2024-03-13T20:21:07.532Z,100939.34
2024-03-13T20:23:52.456Z,100936.69
2024-03-13T20:26:40.635Z,100934.16
2024-03-13T20:29:26.001Z,100936.50
2024-03-13T20:32:10.801Z,100936.38
2024-03-13T20:34:55.774Z,100936.63
2024-03-13T20:37:40.925Z,100933.16
2024-03-13T20:40:26.039Z,100929.84
2024-03-13T20:43:10.817Z,100930.66
2024-03-13T20:45:55.655Z,100920.50
2024-03-13T20:48:40.380Z,100921.34
2024-03-13T20:51:25.917Z,100913.47
2024-03-13T20:54:11.235Z,100905.72
2024-03-13T20:56:56.351Z,100899.66
2024-03-13T20:59:41.247Z,100902.25
2024-03-13T21:02:26.267Z,100902.03
2024-03-13T21:05:11.152Z,100900.47
2024-03-13T21:07:55.963Z,100891.97
2024-03-13T21:10:41.281Z,100889.22
2024-03-13T21:13:26.237Z,100890.13
2024-03-13T21:16:11.201Z,100888.56
2024-03-13T21:18:56.090Z,100887.59
2024-03-13T21:21:41.496Z,100880.69
2024-03-13T21:24:26.456Z,100882.41
2024-03-13T21:27:11.406Z,100869.47
2024-03-13T21:29:56.331Z,100871.22
2024-03-13T21:32:42.390Z,100865.97
2024-03-13T21:35:27.520Z,100866.91
2024-03-13T21:38:13.018Z,100861.06
2024-03-13T21:41:00.154Z,100855.91
2024-03-13T21:43:46.084Z,100854.94
2024-03-13T21:46:31.420Z,100842.88
2024-03-13T21:49:16.451Z,100837.63
2024-03-13T21:52:01.335Z,100842.97
2024-03-13T21:54:46.240Z,100835.16
2024-03-13T21:57:31.063Z,100831.59
2024-03-13T22:00:16.771Z,100833.47
2024-03-13T22:03:02.173Z,100822.41
2024-03-13T22:05:47.180Z,100822.31
2024-03-13T22:08:32.422Z,100818.91
2024-03-13T22:11:17.887Z,100805.88
2024-03-13T22:14:02.944Z,100799.78
2024-03-13T22:16:47.945Z,100802.31
2024-03-13T22:19:32.752Z,100799.75
2024-03-13T22:22:17.864Z,100803.22
2024-03-13T22:25:03.062Z,100804.00
2024-03-13T22:27:48.377Z,100791.88
2024-03-13T22:30:33.786Z,100798.06
2024-03-13T22:33:18.853Z,100795.38
2024-03-13T22:36:04.836Z,100795.47
2024-03-13T22:38:50.230Z,100789.50
2024-03-13T22:41:35.142Z,100785.91
2024-03-13T22:44:20.069Z,100779.03
2024-03-13T22:47:05.951Z,100777.25
2024-03-13T22:49:50.866Z,100768.59
2024-03-13T22:52:35.737Z,100772.94
2024-03-13T22:55:20.587Z,100773.16
2024-03-13T22:58:05.631Z,100769.59
2024-03-13T23:00:50.507Z,100762.75
2024-03-13T23:03:35.665Z,100760.94
2024-03-13T23:06:21.122Z,100755.91
2024-03-13T23:09:06.361Z,100762.03
2024-03-13T23:11:51.753Z,100753.28
2024-03-13T23:14:36.732Z,100764.44
2024-03-13T23:17:21.696Z,100759.31
2024-03-13T23:20:07.707Z,100761.03
2024-03-13T23:22:52.779Z,100758.41
2024-03-13T23:25:37.807Z,100762.75
2024-03-13T23:28:22.661Z,100753.31
2024-03-13T23:31:10.927Z,100748.97
2024-03-13T23:33:56.288Z,100756.81
2024-03-13T23:36:41.457Z,100745.66
2024-03-13T23:39:26.480Z,100734.44
2024-03-13T23:42:11.430Z,100731.03
2024-03-13T23:44:56.278Z,100736.22
2024-03-13T23:47:42.429Z,100731.06
2024-03-13T23:50:27.291Z,100730.16
2024-03-13T23:53:12.389Z,100734.56
2024-03-13T23:55:57.510Z,100729.50
2024-03-13T23:58:42.688Z,100726.72
